createdAt,value
2019-05-03T00:00:45.366Z,79.80
2019-05-03T00:01:45.289Z,80.84
2019-05-03T00:02:45.284Z,78.85
2019-05-03T00:03:45.284Z,79.22
2019-05-03T00:04:45.314Z,81.98
2019-05-03T00:05:45.281Z,79.03
2019-05-03T00:06:45.283Z,82.27
2019-05-03T00:07:45.277Z,78.37
2019-05-03T00:08:45.277Z,80.46
2019-05-03T00:09:45.300Z,77.51
2019-05-03T00:10:45.273Z,78.46
2019-05-03T00:11:45.274Z,78.56
2019-05-03T00:12:45.267Z,80.94
2019-05-03T00:13:45.266Z,81.03
2019-05-03T00:14:45.311Z,83.13
2019-05-03T00:15:45.272Z,80.27
2019-05-03T00:16:45.290Z,80.55
2019-05-03T00:17:45.261Z,80.36
2019-05-03T00:18:45.258Z,80.36
2019-05-03T00:19:45.415Z,81.13
2019-05-03T00:20:45.290Z,82.08
2019-05-03T00:21:45.250Z,81.89
2019-05-03T00:22:45.255Z,80.18
2019-05-03T00:23:45.255Z,78.94
2019-05-03T00:24:45.250Z,78.65
2019-05-03T00:25:45.273Z,80.46
2019-05-03T00:26:45.247Z,81.41
2019-05-03T00:27:45.271Z,79.03
2019-05-03T00:28:45.243Z,78.85
2019-05-03T00:29:46.075Z,79.60
2019-05-03T00:30:45.240Z,80.08
2019-05-03T00:31:45.264Z,78.75
2019-05-03T00:32:45.236Z,78.65
2019-05-03T00:33:45.229Z,79.89
2019-05-03T00:34:46.574Z,77.22
2019-05-03T00:35:45.237Z,77.03
2019-05-03T00:36:45.255Z,76.37
2019-05-03T00:37:45.233Z,76.56
2019-05-03T00:38:45.224Z,78.17
2019-05-03T00:39:45.220Z,77.61
2019-05-03T00:40:45.220Z,75.04
2019-05-03T00:41:45.247Z,77.70
2019-05-03T00:42:45.214Z,76.84
2019-05-03T00:43:45.214Z,77.22
2019-05-03T00:44:45.218Z,77.32
2019-05-03T00:45:45.212Z,74.65
2019-05-03T00:46:45.234Z,75.04
2019-05-03T00:47:45.214Z,74.56
2019-05-03T00:48:45.205Z,74.65
2019-05-03T00:49:45.207Z,75.42
2019-05-03T00:50:45.206Z,75.70
2019-05-03T00:51:45.229Z,75.04
2019-05-03T00:52:45.195Z,76.18
2019-05-03T00:53:45.202Z,74.08
2019-05-03T00:54:45.206Z,74.75
2019-05-03T00:55:45.194Z,74.46
2019-05-03T00:56:45.222Z,74.65
2019-05-03T00:57:45.217Z,75.51
2019-05-03T00:58:45.183Z,74.18
2019-05-03T00:59:45.186Z,77.61
2019-05-03T01:00:45.187Z,75.79
2019-05-03T01:01:45.183Z,75.70
2019-05-03T01:02:45.206Z,74.37
2019-05-03T01:03:45.181Z,76.08
2019-05-03T01:04:45.175Z,76.65
2019-05-03T01:05:45.176Z,76.94
2019-05-03T01:06:45.171Z,75.13
2019-05-03T01:07:45.199Z,78.94
2019-05-03T01:08:45.175Z,79.51
2019-05-03T01:09:45.170Z,76.75
2019-05-03T01:10:45.164Z,75.51
2019-05-03T01:11:45.164Z,76.56
2019-05-03T01:12:45.189Z,76.27
2019-05-03T01:13:45.160Z,75.99
2019-05-03T01:14:45.160Z,77.13
2019-05-03T01:15:45.156Z,77.89
2019-05-03T01:16:45.559Z,75.60
2019-05-03T01:17:45.179Z,75.99
2019-05-03T01:18:45.158Z,74.84
2019-05-03T01:19:45.148Z,76.08
2019-05-03T01:20:45.153Z,75.60
2019-05-03T01:21:45.153Z,75.04
2019-05-03T01:22:45.171Z,76.37
2019-05-03T01:23:45.141Z,74.46
2019-05-03T01:24:45.141Z,75.42
2019-05-03T01:25:45.141Z,75.23
2019-05-03T01:26:45.135Z,74.84
2019-05-03T01:27:45.165Z,75.42
2019-05-03T01:28:45.131Z,75.13
2019-05-03T01:29:45.130Z,74.75
2019-05-03T01:30:45.132Z,73.99
2019-05-03T01:31:45.129Z,74.27
2019-05-03T01:32:45.154Z,73.51
2019-05-03T01:33:45.152Z,73.22
2019-05-03T01:34:45.121Z,75.32
2019-05-03T01:35:45.121Z,73.32
2019-05-03T01:36:45.101Z,74.27
2019-05-03T01:37:45.127Z,75.32
2019-05-03T01:38:45.142Z,73.70
2019-05-03T01:39:45.111Z,73.99
2019-05-03T01:40:45.112Z,76.18
2019-05-03T01:41:45.105Z,77.61
2019-05-03T01:42:45.110Z,75.60
2019-05-03T01:43:45.134Z,76.94
2019-05-03T01:44:45.102Z,74.18
2019-05-03T01:45:45.103Z,77.32
2019-05-03T01:46:45.102Z,75.99
2019-05-03T01:47:45.095Z,76.46
2019-05-03T01:48:45.125Z,76.46
2019-05-03T01:49:45.097Z,74.75
2019-05-03T01:50:45.099Z,76.27
2019-05-03T01:51:45.092Z,75.60
2019-05-03T01:52:45.093Z,75.32
2019-05-03T01:53:45.107Z,75.89
2019-05-03T01:54:45.119Z,75.70
2019-05-03T01:55:46.518Z,75.70
2019-05-03T01:56:55.940Z,74.37
2019-05-03T01:57:45.080Z,75.13
2019-05-03T01:58:45.084Z,77.70
2019-05-03T01:59:45.097Z,75.60
2019-05-03T02:00:45.072Z,74.84
2019-05-03T02:01:45.072Z,74.27
2019-05-03T02:02:45.064Z,74.56
2019-05-03T02:03:45.108Z,74.75
2019-05-03T02:04:45.065Z,74.37
2019-05-03T02:05:45.064Z,73.70
2019-05-03T02:06:45.061Z,74.75
2019-05-03T02:07:45.069Z,74.94
2019-05-03T02:08:45.100Z,73.99
2019-05-03T02:09:45.082Z,72.85
2019-05-03T02:10:45.053Z,73.41
2019-05-03T02:11:45.065Z,72.37
2019-05-03T02:12:45.049Z,72.27
2019-05-03T02:13:45.054Z,73.13
2019-05-03T02:14:45.073Z,73.61
2019-05-03T02:15:45.043Z,72.56
2019-05-03T02:16:45.042Z,71.51
2019-05-03T02:17:45.188Z,70.18
2019-05-03T02:18:45.070Z,69.51
2019-05-03T02:19:45.039Z,69.89
2019-05-03T02:20:46.962Z,70.37
2019-05-03T02:21:45.031Z,68.37
2019-05-03T02:22:45.036Z,67.70
2019-05-03T02:23:45.059Z,66.27
2019-05-03T02:24:45.027Z,66.75
2019-05-03T02:25:55.642Z,65.70
2019-05-03T02:26:45.026Z,65.42
2019-05-03T02:27:45.019Z,65.13
2019-05-03T02:28:45.051Z,62.62
2019-05-03T02:29:45.015Z,61.48
2019-05-03T02:30:45.017Z,58.34
2019-05-03T02:31:45.019Z,57.87
2019-05-03T02:32:45.020Z,57.58
2019-05-03T02:33:45.040Z,55.22
2019-05-03T02:34:45.014Z,54.63
2019-05-03T02:35:45.004Z,55.20
2019-05-03T02:36:45.003Z,54.44
2019-05-03T02:37:45.009Z,53.87
2019-05-03T02:38:45.024Z,54.91
2019-05-03T02:39:44.997Z,53.58
2019-05-03T02:40:44.997Z,49.40
2019-05-03T02:41:48.363Z,50.25
2019-05-03T02:42:46.418Z,40.83
2019-05-03T02:43:45.390Z,43.49
2019-05-03T02:44:46.137Z,41.69
2019-05-03T02:45:45.648Z,37.30
2019-05-03T02:46:45.407Z,35.40
2019-05-03T02:47:47.186Z,32.17
2019-05-03T02:48:45.721Z,31.50
2019-05-03T02:49:45.583Z,29.12
2019-05-03T02:50:45.363Z,28.74
2019-05-03T02:51:46.059Z,28.74
2019-05-03T02:52:45.733Z,27.50
2019-05-03T02:53:45.718Z,24.46
2019-05-03T02:54:46.487Z,25.03
2019-05-03T02:55:45.528Z,22.83
2019-05-03T02:56:46.019Z,24.55
2019-05-03T02:57:46.648Z,25.60
2019-05-03T02:58:46.061Z,22.84
2019-05-03T02:59:45.290Z,20.45
2019-05-03T03:00:45.510Z,22.26
2019-05-03T03:01:46.523Z,20.56
2019-05-03T03:02:45.724Z,20.54
2019-05-03T03:03:45.705Z,19.59
2019-05-03T03:04:45.406Z,17.50
2019-05-03T03:05:46.409Z,15.98
2019-05-03T03:06:45.421Z,15.79
2019-05-03T03:07:45.943Z,15.88
2019-05-03T03:08:45.578Z,14.46
2019-05-03T03:09:45.328Z,13.32
2019-05-03T03:10:45.540Z,12.27
2019-05-03T03:11:45.782Z,10.46
2019-05-03T03:12:46.518Z,8.18
2019-05-03T03:13:45.709Z,6.66
2019-05-03T03:14:45.539Z,6.27
2019-05-03T03:15:45.818Z,6.56
2019-05-03T03:16:45.546Z,5.99
2019-05-03T03:17:45.727Z,4.85
2019-05-03T03:18:45.618Z,5.51
2019-05-03T03:19:46.188Z,5.61
2019-05-03T03:20:45.028Z,4.75
2019-05-03T03:21:46.662Z,5.23
2019-05-03T03:22:45.537Z,3.61
2019-05-03T03:23:46.059Z,3.52
2019-05-03T03:24:45.776Z,3.23
2019-05-03T03:25:46.228Z,4.57
2019-05-03T03:26:47.280Z,3.90
2019-05-03T03:27:45.290Z,2.19
2019-05-03T03:28:46.234Z,2.75
2019-05-03T03:29:45.846Z,1.52
2019-05-03T03:30:48.629Z,0.67
2019-05-03T03:31:48.395Z,0.00
2019-05-03T03:32:48.212Z,0.00
2019-05-03T03:33:47.492Z,0.00
2019-05-03T03:34:54.538Z,2.75
2019-05-03T03:35:48.824Z,5.23
2019-05-03T03:36:58.909Z,7.60
2019-05-03T03:37:46.229Z,8.56
2019-05-03T03:38:45.852Z,7.99
2019-05-03T03:39:45.802Z,8.47
2019-05-03T03:40:45.364Z,7.23
2019-05-03T03:41:45.380Z,10.46
2019-05-03T03:42:45.078Z,10.27
2019-05-03T03:43:46.279Z,10.46
2019-05-03T03:44:45.351Z,11.79
2019-05-03T03:45:45.518Z,15.31
2019-05-03T03:46:45.415Z,11.98
2019-05-03T03:47:46.361Z,11.31
2019-05-03T03:48:46.080Z,13.22
2019-05-03T03:49:46.362Z,14.93
2019-05-03T03:50:45.720Z,16.45
2019-05-03T03:51:45.545Z,11.03
2019-05-03T03:52:45.280Z,9.31
2019-05-03T03:53:46.492Z,13.12
2019-05-03T03:54:45.713Z,11.88
2019-05-03T03:55:45.849Z,11.22
2019-05-03T03:56:58.474Z,11.12
2019-05-03T03:57:46.850Z,9.98
2019-05-03T03:58:46.467Z,9.22
2019-05-03T03:59:45.521Z,7.60
2019-05-03T04:00:46.408Z,7.42
2019-05-03T04:01:45.625Z,4.18
2019-05-03T04:02:45.853Z,3.89
2019-05-03T04:03:45.953Z,3.33
2019-05-03T04:04:45.120Z,3.70
2019-05-03T04:05:46.750Z,3.80
2019-05-03T04:06:46.571Z,2.37
2019-05-03T04:07:46.396Z,2.85
2019-05-03T04:08:45.398Z,1.14
2019-05-03T04:09:45.655Z,0.19
2019-05-03T04:10:46.346Z,0.00
2019-05-03T04:11:46.316Z,0.00
2019-05-03T04:12:45.460Z,1.52
2019-05-03T04:13:45.295Z,2.37
2019-05-03T04:14:45.302Z,0.57
2019-05-03T04:15:45.386Z,0.00
2019-05-03T04:16:45.479Z,0.00
2019-05-03T04:17:45.700Z,0.00
2019-05-03T04:18:45.573Z,0.00
2019-05-03T04:19:45.507Z,0.00
2019-05-03T04:20:45.834Z,0.00
2019-05-03T04:21:45.267Z,0.00
2019-05-03T04:22:45.305Z,0.00
2019-05-03T04:23:45.840Z,0.00
2019-05-03T04:24:45.956Z,0.00
2019-05-03T04:25:45.128Z,0.00
2019-05-03T04:26:45.339Z,0.00
2019-05-03T04:27:45.565Z,0.00
2019-05-03T04:28:45.338Z,0.00
2019-05-03T04:29:45.359Z,0.00
2019-05-03T04:30:45.976Z,0.00
2019-05-03T04:31:45.715Z,0.00
2019-05-03T04:32:45.491Z,0.00
2019-05-03T04:33:45.169Z,0.00
2019-05-03T04:34:45.556Z,0.00
2019-05-03T04:35:46.529Z,0.00
2019-05-03T04:36:46.221Z,0.00
2019-05-03T04:37:45.386Z,0.00
2019-05-03T04:38:45.349Z,0.00
2019-05-03T04:39:45.645Z,0.00
2019-05-03T04:40:45.402Z,0.00
2019-05-03T04:41:45.299Z,0.00
2019-05-03T04:42:46.444Z,0.00
2019-05-03T04:43:46.015Z,0.00
2019-05-03T04:44:45.701Z,0.00
2019-05-03T04:45:45.599Z,0.00
2019-05-03T04:46:46.508Z,0.00
2019-05-03T04:47:46.386Z,0.00
2019-05-03T04:48:44.999Z,0.00
2019-05-03T04:49:46.200Z,0.00
2019-05-03T04:50:45.665Z,0.00
2019-05-03T04:51:46.553Z,0.00
2019-05-03T04:52:46.273Z,0.00
2019-05-03T04:53:45.484Z,0.00
2019-05-03T04:54:45.273Z,0.00
2019-05-03T04:55:46.842Z,0.00
2019-05-03T04:56:46.407Z,0.00
2019-05-03T04:57:46.832Z,0.00
2019-05-03T04:58:45.862Z,0.00
2019-05-03T04:59:45.197Z,0.00
2019-05-03T05:00:46.456Z,0.00
2019-05-03T05:01:46.104Z,0.00
2019-05-03T05:02:45.722Z,0.00
2019-05-03T05:03:45.694Z,0.00
2019-05-03T05:04:46.273Z,0.00
2019-05-03T05:05:45.350Z,0.00
2019-05-03T05:06:45.137Z,0.00
2019-05-03T05:07:45.651Z,0.00
2019-05-03T05:08:46.047Z,0.00
2019-05-03T05:09:45.623Z,0.00
2019-05-03T05:10:45.521Z,0.00
2019-05-03T05:11:45.790Z,0.00
2019-05-03T05:12:45.754Z,0.00
2019-05-03T05:13:45.767Z,0.85
2019-05-03T05:14:45.675Z,1.52
2019-05-03T05:15:45.980Z,0.67
2019-05-03T05:16:46.554Z,0.09
2019-05-03T05:17:45.875Z,0.47
2019-05-03T05:18:45.673Z,0.47
2019-05-03T05:19:44.654Z,3.99
2019-05-03T05:20:45.377Z,2.56
2019-05-03T05:21:44.848Z,4.57
2019-05-03T05:22:45.433Z,3.14
2019-05-03T05:23:44.587Z,3.70
2019-05-03T05:24:45.004Z,3.33
2019-05-03T05:25:44.656Z,2.56
2019-05-03T05:26:44.698Z,3.70
2019-05-03T05:27:49.520Z,5.61
2019-05-03T05:28:44.830Z,6.27
2019-05-03T05:29:45.049Z,6.75
2019-05-03T05:30:44.581Z,8.56
2019-05-03T05:31:44.700Z,15.03
2019-05-03T05:32:45.374Z,22.54
2019-05-03T05:33:44.717Z,20.07
2019-05-03T05:34:46.043Z,21.12
2019-05-03T05:35:44.562Z,23.30
2019-05-03T05:36:45.105Z,29.47
2019-05-03T05:37:44.585Z,28.71
2019-05-03T05:38:45.076Z,28.62
2019-05-03T05:39:44.805Z,28.90
2019-05-03T05:40:45.112Z,31.56
2019-05-03T05:41:45.051Z,28.62
2019-05-03T05:42:45.396Z,27.67
2019-05-03T05:43:44.736Z,32.80
2019-05-03T05:44:45.383Z,30.33
2019-05-03T05:45:45.015Z,31.56
2019-05-03T05:46:45.417Z,28.52
2019-05-03T05:47:44.903Z,28.81
2019-05-03T05:48:45.202Z,29.75
2019-05-03T05:49:44.553Z,28.05
2019-05-03T05:50:44.983Z,28.33
2019-05-03T05:51:44.625Z,33.56
2019-05-03T05:52:44.903Z,33.29
2019-05-03T05:53:44.809Z,38.51
2019-05-03T05:54:45.560Z,43.35
2019-05-03T05:55:44.802Z,37.65
2019-05-03T05:56:44.627Z,40.79
2019-05-03T05:57:44.948Z,35.19
2019-05-03T05:58:45.029Z,41.09
2019-05-03T05:59:45.359Z,50.70
2019-05-03T06:00:44.850Z,49.46
2019-05-03T06:01:45.604Z,48.23
2019-05-03T06:02:44.769Z,52.32
2019-05-03T06:03:44.910Z,51.65
2019-05-03T06:04:45.226Z,51.65
2019-05-03T06:05:44.713Z,55.65
2019-05-03T06:06:45.159Z,51.75
2019-05-03T06:07:44.491Z,49.85
2019-05-03T06:08:44.730Z,44.73
2019-05-03T06:09:44.817Z,50.06
2019-05-03T06:10:45.108Z,51.49
2019-05-03T06:11:45.047Z,60.21
2019-05-03T06:12:45.444Z,54.41
2019-05-03T06:13:44.540Z,50.32
2019-05-03T06:14:45.308Z,57.07
2019-05-03T06:15:44.763Z,50.23
2019-05-03T06:16:45.194Z,43.38
2019-05-03T06:17:45.095Z,54.69
2019-05-03T06:18:45.206Z,63.04
2019-05-03T06:19:44.907Z,60.75
2019-05-03T06:20:45.157Z,59.17
2019-05-03T06:21:44.819Z,59.90
2019-05-03T06:22:44.833Z,65.13
2019-05-03T06:23:45.122Z,64.59
2019-05-03T06:24:45.238Z,61.99
2019-05-03T06:25:45.381Z,59.61
2019-05-03T06:26:44.450Z,62.94
2019-05-03T06:27:44.942Z,62.46
2019-05-03T06:28:45.387Z,67.50
2019-05-03T06:29:45.396Z,61.90
2019-05-03T06:30:45.433Z,66.74
2019-05-03T06:31:44.689Z,65.51
2019-05-03T06:32:44.877Z,65.51
2019-05-03T06:33:45.042Z,64.65
2019-05-03T06:34:45.515Z,60.57
2019-05-03T06:35:44.591Z,57.52
2019-05-03T06:36:44.434Z,57.71
2019-05-03T06:37:45.895Z,64.18
2019-05-03T06:38:44.789Z,67.41
2019-05-03T06:39:45.435Z,55.15
2019-05-03T06:40:44.792Z,63.48
2019-05-03T06:41:44.639Z,67.66
2019-05-03T06:42:52.469Z,66.52
2019-05-03T06:43:48.395Z,73.93
2019-05-03T06:44:45.549Z,59.96
2019-05-03T06:45:49.103Z,68.90
2019-05-03T06:46:45.698Z,75.36
2019-05-03T06:47:48.082Z,74.41
2019-05-03T06:48:44.469Z,62.24
2019-05-03T06:49:48.294Z,69.18
2019-05-03T06:50:45.414Z,66.30
2019-05-03T06:51:45.790Z,66.71
2019-05-03T06:52:44.632Z,67.19
2019-05-03T06:53:47.571Z,68.04
2019-05-03T06:54:44.991Z,68.71
2019-05-03T06:55:48.236Z,70.89
2019-05-03T06:56:45.271Z,63.95
2019-05-03T06:57:45.598Z,60.25
2019-05-03T06:58:44.871Z,61.39
2019-05-03T06:59:45.186Z,63.29
2019-05-03T07:00:45.193Z,63.01
2019-05-03T07:01:44.819Z,67.69
2019-05-03T07:02:44.744Z,67.69
2019-05-03T07:03:44.849Z,68.55
2019-05-03T07:04:44.986Z,72.45
2019-05-03T07:05:44.510Z,67.50
2019-05-03T07:06:45.088Z,63.99
2019-05-03T07:07:44.475Z,72.26
2019-05-03T07:08:46.936Z,65.13
2019-05-03T07:09:44.532Z,67.22
2019-05-03T07:10:44.560Z,61.52
2019-05-03T07:11:45.119Z,73.49
2019-05-03T07:12:45.474Z,72.74
2019-05-03T07:13:44.977Z,68.93
2019-05-03T07:14:45.129Z,64.18
2019-05-03T07:15:45.466Z,67.79
2019-05-03T07:16:44.458Z,59.80
2019-05-03T07:17:45.085Z,52.01
2019-05-03T07:18:45.464Z,52.58
2019-05-03T07:19:45.891Z,52.64
2019-05-03T07:20:44.634Z,55.02
2019-05-03T07:21:44.705Z,47.42
2019-05-03T07:22:44.508Z,38.68
2019-05-03T07:23:45.085Z,35.92
2019-05-03T07:24:45.516Z,31.64
2019-05-03T07:25:44.767Z,27.64
2019-05-03T07:26:44.817Z,24.60
2019-05-03T07:27:45.263Z,23.18
2019-05-03T07:28:47.815Z,21.28
2019-05-03T07:29:44.634Z,25.26
2019-05-03T07:30:45.377Z,24.51
2019-05-03T07:31:44.742Z,23.27
2019-05-03T07:32:44.853Z,22.89
2019-05-03T07:33:44.698Z,19.76
2019-05-03T07:34:45.292Z,14.72
2019-05-03T07:35:44.517Z,12.63
2019-05-03T07:36:44.701Z,11.96
2019-05-03T07:37:45.080Z,11.96
2019-05-03T07:38:45.387Z,12.16
2019-05-03T07:39:45.303Z,14.25
2019-05-03T07:40:44.611Z,16.05
2019-05-03T07:41:44.736Z,16.52
2019-05-03T07:42:44.891Z,13.77
2019-05-03T07:43:45.071Z,12.25
2019-05-03T07:44:44.959Z,11.77
2019-05-03T07:45:44.641Z,14.81
2019-05-03T07:46:45.147Z,15.10
2019-05-03T07:47:45.230Z,13.20
2019-05-03T07:48:45.652Z,9.69
2019-05-03T07:49:44.808Z,11.02
2019-05-03T07:50:44.708Z,10.54
2019-05-03T07:51:44.849Z,9.97
2019-05-03T07:52:45.129Z,3.80
2019-05-03T07:53:45.095Z,4.36
2019-05-03T07:54:45.189Z,9.31
2019-05-03T07:55:45.690Z,13.77
2019-05-03T07:56:44.647Z,14.34
2019-05-03T07:57:45.272Z,15.29
2019-05-03T07:58:48.889Z,13.01
2019-05-03T07:59:45.521Z,11.30
2019-05-03T08:00:44.702Z,15.20
2019-05-03T08:01:45.568Z,12.92
2019-05-03T08:02:44.710Z,14.53
2019-05-03T08:03:45.100Z,14.91
2019-05-03T08:04:44.488Z,12.16
2019-05-03T08:05:45.453Z,16.14
2019-05-03T08:06:44.573Z,18.43
2019-05-03T08:07:46.180Z,17.29
2019-05-03T08:08:45.462Z,25.74
2019-05-03T08:09:45.296Z,32.77
2019-05-03T08:10:45.017Z,22.99
2019-05-03T08:11:44.452Z,23.08
2019-05-03T08:12:45.182Z,18.99
2019-05-03T08:13:44.632Z,15.77
2019-05-03T08:14:44.652Z,22.13
2019-05-03T08:15:45.256Z,26.88
2019-05-03T08:16:45.614Z,24.98
2019-05-03T08:17:44.996Z,40.27
2019-05-03T08:18:45.733Z,28.51
2019-05-03T08:19:44.733Z,32.96
2019-05-03T08:20:45.106Z,25.85
2019-05-03T08:21:45.276Z,33.54
2019-05-03T08:22:44.791Z,33.64
2019-05-03T08:23:45.321Z,39.91
2019-05-03T08:24:44.858Z,35.06
2019-05-03T08:25:44.610Z,31.17
2019-05-03T08:26:45.341Z,33.83
2019-05-03T08:27:44.623Z,28.89
2019-05-03T08:28:44.521Z,47.42
2019-05-03T08:29:45.352Z,56.07
2019-05-03T08:30:44.500Z,45.14
2019-05-03T08:31:45.454Z,68.48
2019-05-03T08:32:44.534Z,58.61
2019-05-03T08:33:44.808Z,48.63
2019-05-03T08:34:45.281Z,25.65
2019-05-03T08:35:44.825Z,47.02
2019-05-03T08:36:45.195Z,63.07
2019-05-03T08:37:45.283Z,61.07
2019-05-03T08:38:45.242Z,59.27
2019-05-03T08:39:44.788Z,44.64
2019-05-03T08:40:45.512Z,30.96
2019-05-03T08:41:44.377Z,19.48
2019-05-03T08:42:44.482Z,26.79
2019-05-03T08:43:44.631Z,24.33
2019-05-03T08:44:45.326Z,40.20
2019-05-03T08:45:44.756Z,41.81
2019-05-03T08:46:47.206Z,51.70
2019-05-03T08:47:45.067Z,51.60
2019-05-03T08:48:45.631Z,59.49
2019-05-03T08:49:45.027Z,45.42
2019-05-03T08:50:45.117Z,47.34
2019-05-03T08:51:44.414Z,50.10
2019-05-03T08:52:45.170Z,57.52
2019-05-03T08:53:45.901Z,63.89
2019-05-03T08:54:44.868Z,58.28
2019-05-03T08:55:44.973Z,62.27
2019-05-03T08:56:45.120Z,56.95
2019-05-03T08:57:44.770Z,60.28
2019-05-03T08:58:45.075Z,60.57
2019-05-03T08:59:44.594Z,66.27
2019-05-03T09:00:45.519Z,54.77
2019-05-03T09:01:45.437Z,67.32
2019-05-03T09:02:44.751Z,69.21
2019-05-03T09:03:45.764Z,73.25
2019-05-03T09:04:45.887Z,82.86
2019-05-03T09:05:45.789Z,99.99
2019-05-03T09:06:44.653Z,99.99
2019-05-03T09:07:44.720Z,96.55
2019-05-03T09:08:45.833Z,99.99
2019-05-03T09:09:45.989Z,99.99
2019-05-03T09:10:45.995Z,92.03
2019-05-03T09:11:45.382Z,99.99
2019-05-03T09:12:44.916Z,99.99
2019-05-03T09:13:44.991Z,99.99
2019-05-03T09:14:46.364Z,99.99
2019-05-03T09:15:44.607Z,99.99
2019-05-03T09:16:44.739Z,99.99
2019-05-03T09:17:44.597Z,99.99
2019-05-03T09:18:45.413Z,99.99
2019-05-03T09:19:45.334Z,99.99
2019-05-03T09:20:44.845Z,99.99
2019-05-03T09:21:45.366Z,99.99
2019-05-03T09:22:45.356Z,99.99
2019-05-03T09:23:44.988Z,99.99
2019-05-03T09:24:45.534Z,99.99
2019-05-03T09:25:45.823Z,99.99
2019-05-03T09:26:44.929Z,99.99
2019-05-03T09:27:44.690Z,99.99
2019-05-03T09:28:45.459Z,99.99
2019-05-03T09:29:46.068Z,99.99
2019-05-03T09:30:44.734Z,99.99
2019-05-03T09:31:44.669Z,99.99
2019-05-03T09:32:44.818Z,99.99
2019-05-03T09:33:45.180Z,99.99
2019-05-03T09:34:44.493Z,99.99
2019-05-03T09:35:45.753Z,99.99
2019-05-03T09:36:44.878Z,99.99
2019-05-03T09:37:44.915Z,99.99
2019-05-03T09:38:45.838Z,99.99
2019-05-03T09:39:44.519Z,99.99
2019-05-03T09:40:45.360Z,99.99
2019-05-03T09:41:45.041Z,99.99
2019-05-03T09:42:44.502Z,99.99
2019-05-03T09:43:45.009Z,99.99
2019-05-03T09:44:45.073Z,99.99
2019-05-03T09:45:45.735Z,99.99
2019-05-03T09:46:44.647Z,99.99
2019-05-03T09:47:44.856Z,99.99
2019-05-03T09:48:45.349Z,99.99
2019-05-03T09:49:45.354Z,99.99
2019-05-03T09:50:45.153Z,99.99
2019-05-03T09:51:44.461Z,99.99
2019-05-03T09:52:46.836Z,99.99
2019-05-03T09:53:44.670Z,99.99
2019-05-03T09:54:45.309Z,99.99
2019-05-03T09:55:44.855Z,99.99
2019-05-03T09:56:48.071Z,99.99
2019-05-03T09:57:44.486Z,99.99
2019-05-03T09:58:45.988Z,99.99
2019-05-03T09:59:56.433Z,99.99
2019-05-03T10:00:44.580Z,99.99
2019-05-03T10:01:45.654Z,99.99
2019-05-03T10:02:44.992Z,99.99
2019-05-03T10:03:45.207Z,99.99
2019-05-03T10:04:44.614Z,99.66
2019-05-03T10:05:45.805Z,99.99
2019-05-03T10:06:45.303Z,99.99
2019-05-03T10:07:45.587Z,99.99
2019-05-03T10:08:45.445Z,99.99
2019-05-03T10:09:45.062Z,99.99
2019-05-03T10:10:44.041Z,99.99
2019-05-03T10:11:45.953Z,98.76
2019-05-03T10:12:44.422Z,97.66
2019-05-03T10:13:48.327Z,99.99
2019-05-03T10:14:45.191Z,99.99
2019-05-03T10:15:45.080Z,99.99
2019-05-03T10:16:44.911Z,99.99
2019-05-03T10:17:45.799Z,99.99
2019-05-03T10:18:45.954Z,99.99
2019-05-03T10:19:45.166Z,99.99
2019-05-03T10:20:44.634Z,99.99
2019-05-03T10:21:44.905Z,99.99
2019-05-03T10:22:44.111Z,99.99
2019-05-03T10:23:45.256Z,99.99
2019-05-03T10:24:45.243Z,99.99
2019-05-03T10:25:45.513Z,99.99
2019-05-03T10:26:45.555Z,99.99
2019-05-03T10:27:45.734Z,99.99
2019-05-03T10:28:44.155Z,99.99
2019-05-03T10:29:44.767Z,99.99
2019-05-03T10:30:45.078Z,99.99
2019-05-03T10:31:44.955Z,99.99
2019-05-03T10:32:44.939Z,99.99
2019-05-03T10:33:45.020Z,99.99
2019-05-03T10:34:44.118Z,99.99
2019-05-03T10:35:45.144Z,99.99
2019-05-03T10:36:44.175Z,99.99
2019-05-03T10:37:45.323Z,99.99
2019-05-03T10:38:46.047Z,99.99
2019-05-03T10:39:45.519Z,99.99
2019-05-03T10:40:45.228Z,99.99
2019-05-03T10:41:45.317Z,99.99
2019-05-03T10:42:44.555Z,99.99
2019-05-03T10:43:45.171Z,99.99
2019-05-03T10:44:44.915Z,99.99
2019-05-03T10:45:45.024Z,99.99
2019-05-03T10:46:45.218Z,99.99
2019-05-03T10:47:45.667Z,99.99
2019-05-03T10:48:45.065Z,99.99
2019-05-03T10:49:45.741Z,99.99
2019-05-03T10:50:44.154Z,99.99
2019-05-03T10:51:45.218Z,99.99
2019-05-03T10:52:44.619Z,99.99
2019-05-03T10:53:45.459Z,99.99
2019-05-03T10:54:45.883Z,99.99
2019-05-03T10:55:45.068Z,99.99
2019-05-03T10:56:45.244Z,99.99
2019-05-03T10:57:44.920Z,99.99
2019-05-03T10:58:45.305Z,99.99
2019-05-03T10:59:44.809Z,99.99
2019-05-03T11:00:50.221Z,99.99
2019-05-03T11:01:45.217Z,99.99
2019-05-03T11:02:45.305Z,99.99
2019-05-03T11:03:45.178Z,99.99
2019-05-03T11:04:46.144Z,99.99
2019-05-03T11:05:45.417Z,99.99
2019-05-03T11:06:45.798Z,99.99
2019-05-03T11:07:45.166Z,99.99
2019-05-03T11:08:45.128Z,99.99
2019-05-03T11:09:49.642Z,99.99
2019-05-03T11:10:44.156Z,99.99
2019-05-03T11:11:45.288Z,99.99
2019-05-03T11:12:44.153Z,99.99
2019-05-03T11:13:44.171Z,99.99
2019-05-03T11:14:45.540Z,99.99
2019-05-03T11:15:44.455Z,99.99
2019-05-03T11:16:45.970Z,99.99
2019-05-03T11:17:45.512Z,99.99
2019-05-03T11:18:45.574Z,99.99
2019-05-03T11:19:45.475Z,99.99
2019-05-03T11:20:45.259Z,99.99
2019-05-03T11:21:45.495Z,99.99
2019-05-03T11:22:45.263Z,99.99
2019-05-03T11:23:45.063Z,99.99
2019-05-03T11:24:45.446Z,99.99
2019-05-03T11:25:45.192Z,99.99
2019-05-03T11:26:45.443Z,99.99
2019-05-03T11:27:44.709Z,99.99
2019-05-03T11:28:44.888Z,99.99
2019-05-03T11:29:45.017Z,99.99
2019-05-03T11:30:53.130Z,99.99
2019-05-03T11:31:44.580Z,99.99
2019-05-03T11:32:44.742Z,99.99
2019-05-03T11:33:45.688Z,99.99
2019-05-03T11:34:44.929Z,99.99
2019-05-03T11:35:44.655Z,99.99
2019-05-03T11:36:45.460Z,99.99
2019-05-03T11:37:45.436Z,99.99
2019-05-03T11:38:45.582Z,99.99
2019-05-03T11:39:45.174Z,99.99
2019-05-03T11:40:45.506Z,99.99
2019-05-03T11:41:45.104Z,99.18
2019-05-03T11:42:44.785Z,97.71
2019-05-03T11:43:44.430Z,97.42
2019-05-03T11:44:44.680Z,97.22
2019-05-03T11:45:44.893Z,99.57
2019-05-03T11:46:44.546Z,99.99
2019-05-03T11:47:45.780Z,99.99
2019-05-03T11:48:45.495Z,99.99
2019-05-03T11:49:45.376Z,99.99
2019-05-03T11:50:45.340Z,99.99
2019-05-03T11:51:44.649Z,99.99
2019-05-03T11:52:46.777Z,99.08
2019-05-03T11:53:45.044Z,99.99
2019-05-03T11:54:45.270Z,99.99
2019-05-03T11:55:46.373Z,99.99
2019-05-03T11:56:44.954Z,99.99
2019-05-03T11:57:44.978Z,99.99
2019-05-03T11:58:45.679Z,99.99
2019-05-03T11:59:45.297Z,99.32
2019-05-03T12:00:45.110Z,99.99
2019-05-03T12:01:44.942Z,99.99
2019-05-03T12:02:44.834Z,99.66
2019-05-03T12:03:45.130Z,98.13
2019-05-03T12:04:45.858Z,97.71
2019-05-03T12:05:44.184Z,99.04
2019-05-03T12:06:45.600Z,98.52
2019-05-03T12:07:45.547Z,97.75
2019-05-03T12:08:44.770Z,97.85
2019-05-03T12:09:45.200Z,95.41
2019-05-03T12:10:52.369Z,94.74
2019-05-03T12:11:44.168Z,95.22
2019-05-03T12:12:44.656Z,97.13
2019-05-03T12:13:45.647Z,95.98
2019-05-03T12:14:45.329Z,95.61
2019-05-03T12:15:44.597Z,96.27
2019-05-03T12:17:52.029Z,96.22
2019-05-03T12:18:50.308Z,95.27
2019-05-03T12:19:47.466Z,94.98
2019-05-03T12:20:46.517Z,95.46
2019-05-03T12:21:44.825Z,95.89
2019-05-03T12:22:46.673Z,95.79
2019-05-03T12:23:45.956Z,94.07
2019-05-03T12:24:45.757Z,96.27
2019-05-03T12:25:45.939Z,94.74
2019-05-03T12:26:46.783Z,93.31
2019-05-03T12:27:44.554Z,92.83
2019-05-03T12:28:44.771Z,95.79
2019-05-03T12:29:44.707Z,95.03
2019-05-03T12:30:44.939Z,96.27
2019-05-03T12:31:45.568Z,95.75
2019-05-03T12:32:44.210Z,94.84
2019-05-03T12:33:45.984Z,95.61
2019-05-03T12:34:44.195Z,97.94
2019-05-03T12:35:46.252Z,97.94
2019-05-03T12:36:45.136Z,98.70
2019-05-03T12:37:44.195Z,99.27
2019-05-03T12:38:44.248Z,98.03
2019-05-03T12:39:44.226Z,97.41
2019-05-03T12:40:45.579Z,98.27
2019-05-03T12:41:48.016Z,98.94
2019-05-03T12:42:45.438Z,99.27
2019-05-03T12:43:44.206Z,97.56
2019-05-03T12:44:46.052Z,98.37
2019-05-03T12:45:44.234Z,98.85
2019-05-03T12:46:45.006Z,96.27
2019-05-03T12:47:45.304Z,94.07
2019-05-03T12:48:44.842Z,94.12
2019-05-03T12:49:45.151Z,92.69
2019-05-03T12:50:46.365Z,92.02
2019-05-03T12:51:45.282Z,93.98
2019-05-03T12:52:50.441Z,95.51
2019-05-03T12:53:44.217Z,96.27
2019-05-03T12:54:45.135Z,97.08
2019-05-03T12:55:44.264Z,94.51
2019-05-03T12:56:45.393Z,94.02
2019-05-03T12:57:45.785Z,92.26